createdAt,value
2023-04-18T00:02:03.081Z,37.60
2023-04-18T00:04:30.264Z,39.80
2023-04-18T00:06:57.282Z,39.55
2023-04-18T00:09:24.313Z,39.53
2023-04-18T00:11:51.696Z,38.92
2023-04-18T00:14:20.053Z,36.72
2023-04-18T00:16:47.121Z,39.08
2023-04-18T00:19:14.233Z,42.08
2023-04-18T00:21:41.421Z,39.83
2023-04-18T00:24:08.780Z,38.83
2023-04-18T00:26:35.864Z,40.25
2023-04-18T00:29:03.647Z,40.78
2023-04-18T00:31:32.096Z,38.85
2023-04-18T00:33:59.096Z,39.20
2023-04-18T00:36:26.073Z,37.40
2023-04-18T00:38:53.097Z,40.35
2023-04-18T00:41:21.333Z,39.55
2023-04-18T00:43:48.248Z,34.50
2023-04-18T00:46:15.323Z,39.85
2023-04-18T00:48:43.753Z,35.63
2023-04-18T00:51:11.963Z,37.85
2023-04-18T00:53:40.082Z,40.53
2023-04-18T00:56:07.134Z,37.97
2023-04-18T00:58:34.191Z,38.50
2023-04-18T01:01:01.246Z,39.53
2023-04-18T01:03:28.576Z,35.67
2023-04-18T01:05:57.111Z,42.20
2023-04-18T01:08:25.036Z,37.47
2023-04-18T01:10:52.366Z,38.97
2023-04-18T01:13:20.660Z,38.25
2023-04-18T01:15:49.165Z,36.92
2023-04-18T01:18:17.301Z,37.60
2023-04-18T01:20:45.724Z,34.63
2023-04-18T01:23:14.521Z,38.90
2023-04-18T01:25:43.786Z,36.50
2023-04-18T01:28:12.178Z,36.08
2023-04-18T01:30:39.294Z,39.05
2023-04-18T01:33:06.601Z,37.60
2023-04-18T01:35:34.029Z,36.88
2023-04-18T01:38:01.188Z,41.28
2023-04-18T01:40:28.476Z,40.92
2023-04-18T01:42:57.097Z,39.45
2023-04-18T01:45:24.439Z,37.70
2023-04-18T01:47:51.691Z,42.15
2023-04-18T01:50:18.652Z,39.90
2023-04-18T01:52:45.656Z,38.63
2023-04-18T01:55:12.770Z,42.03
2023-04-18T01:57:39.722Z,41.65
2023-04-18T02:00:09.428Z,40.67
2023-04-18T02:02:36.549Z,40.92
2023-04-18T02:05:03.797Z,44.47
2023-04-18T02:07:30.764Z,37.88
2023-04-18T02:09:57.827Z,40.88
2023-04-18T02:12:24.846Z,38.30
2023-04-18T02:14:52.761Z,39.47
2023-04-18T02:17:21.837Z,42.45
2023-04-18T02:19:49.167Z,41.55
2023-04-18T02:22:16.218Z,39.13
2023-04-18T02:24:43.282Z,41.55
2023-04-18T02:27:11.379Z,40.22
2023-04-18T02:29:38.367Z,44.67
2023-04-18T02:32:06.000Z,42.50
2023-04-18T02:34:34.621Z,44.42
2023-04-18T02:37:01.594Z,43.47
2023-04-18T02:39:28.559Z,42.22
2023-04-18T02:41:55.514Z,42.45
2023-04-18T02:44:22.526Z,43.17
2023-04-18T02:46:49.530Z,46.40
2023-04-18T02:49:16.476Z,41.88
2023-04-18T02:51:45.554Z,44.00
2023-04-18T02:54:12.728Z,43.83
2023-04-18T02:56:39.951Z,47.45
2023-04-18T02:59:07.417Z,43.35
2023-04-18T03:01:34.487Z,43.88
2023-04-18T03:04:01.551Z,44.72
2023-04-18T03:06:28.632Z,42.20
2023-04-18T03:08:57.002Z,42.88
2023-04-18T03:11:23.980Z,39.80
2023-04-18T03:13:51.446Z,44.60
2023-04-18T03:16:18.435Z,40.67
2023-04-18T03:18:45.445Z,45.45
2023-04-18T03:21:12.519Z,47.50
2023-04-18T03:23:40.694Z,43.00
2023-04-18T03:26:09.170Z,43.40
2023-04-18T03:28:36.195Z,44.55
2023-04-18T03:31:03.261Z,44.78
2023-04-18T03:33:30.347Z,42.35
2023-04-18T03:35:57.422Z,42.03
2023-04-18T03:38:24.435Z,45.03
2023-04-18T03:40:51.464Z,43.88
2023-04-18T03:43:20.409Z,42.20
2023-04-18T03:45:47.621Z,41.65
2023-04-18T03:48:15.261Z,44.25
2023-04-18T03:50:42.279Z,45.50
2023-04-18T03:53:09.261Z,46.65
2023-04-18T03:55:36.394Z,43.42
2023-04-18T03:58:03.452Z,46.25
2023-04-18T04:00:32.222Z,41.70
2023-04-18T04:02:59.397Z,43.50
2023-04-18T04:05:26.675Z,43.47
2023-04-18T04:07:53.841Z,43.47
2023-04-18T04:10:20.946Z,42.03
2023-04-18T04:12:48.100Z,38.22
2023-04-18T04:15:15.134Z,40.83
2023-04-18T04:17:43.580Z,39.67
2023-04-18T04:20:11.786Z,38.20
2023-04-18T04:22:38.733Z,39.78
2023-04-18T04:25:06.090Z,36.85
2023-04-18T04:27:33.048Z,37.78
2023-04-18T04:30:00.298Z,39.13
2023-04-18T04:32:27.302Z,37.55
2023-04-18T04:34:55.697Z,32.85
2023-04-18T04:37:22.694Z,32.88
2023-04-18T04:39:49.677Z,35.55
2023-04-18T04:42:16.642Z,36.45
2023-04-18T04:44:43.733Z,31.00
2023-04-18T04:47:10.797Z,35.30
2023-04-18T04:49:37.732Z,32.08
2023-04-18T04:52:06.071Z,36.25
2023-04-18T04:54:33.088Z,33.88
2023-04-18T04:57:00.152Z,40.15
2023-04-18T04:59:27.054Z,31.40
2023-04-18T05:01:54.116Z,32.08
2023-04-18T05:04:21.241Z,37.25
2023-04-18T05:06:48.378Z,33.83
2023-04-18T05:09:16.848Z,31.73
2023-04-18T05:11:44.150Z,35.55
2023-04-18T05:14:11.553Z,30.55
2023-04-18T05:16:38.757Z,33.45
2023-04-18T05:19:05.779Z,28.15
2023-04-18T05:21:32.791Z,27.48
2023-04-18T05:23:59.724Z,33.03
2023-04-18T05:26:28.102Z,33.58
2023-04-18T05:28:55.121Z,30.42
2023-04-18T05:31:22.166Z,28.33
2023-04-18T05:33:49.224Z,27.65
2023-04-18T05:36:16.224Z,27.33
2023-04-18T05:38:43.496Z,26.75
2023-04-18T05:41:10.533Z,26.48
2023-04-18T05:43:38.937Z,27.58
2023-04-18T05:46:05.999Z,27.98
2023-04-18T05:48:32.943Z,26.50
2023-04-18T05:50:59.967Z,27.42
2023-04-18T05:53:27.005Z,26.92
2023-04-18T05:55:54.006Z,26.05
2023-04-18T05:58:21.014Z,24.42
2023-04-18T06:00:49.334Z,26.35
2023-04-18T06:03:16.554Z,26.75
2023-04-18T06:05:43.901Z,27.83
2023-04-18T06:08:10.886Z,29.75
2023-04-18T06:10:39.097Z,23.73
2023-04-18T06:13:06.353Z,34.00
2023-04-18T06:15:34.288Z,31.88
2023-04-18T06:18:02.696Z,23.23
2023-04-18T06:20:29.789Z,25.60
2023-04-18T06:22:56.778Z,22.25
2023-04-18T06:25:24.639Z,23.20
2023-04-18T06:27:51.735Z,19.48
2023-04-18T06:30:18.758Z,19.90
2023-04-18T06:32:45.670Z,17.30
2023-04-18T06:35:14.119Z,15.85
2023-04-18T06:37:41.145Z,29.08
2023-04-18T06:40:09.733Z,19.95
2023-04-18T06:42:36.704Z,17.02
2023-04-18T06:45:04.101Z,16.42
2023-04-18T06:47:31.172Z,23.60
2023-04-18T06:49:58.145Z,18.02
2023-04-18T06:52:26.558Z,17.45
2023-04-18T06:54:53.529Z,16.63
2023-04-18T06:57:20.612Z,17.73
2023-04-18T06:59:47.559Z,17.00
2023-04-18T07:02:14.726Z,17.27
2023-04-18T07:04:41.830Z,18.33
2023-04-18T07:07:08.852Z,20.58
2023-04-18T07:09:37.345Z,15.02
2023-04-18T07:12:04.541Z,17.65
2023-04-18T07:14:33.572Z,15.55
2023-04-18T07:17:01.497Z,15.88
2023-04-18T07:19:28.532Z,14.30
2023-04-18T07:21:55.603Z,14.50
2023-04-18T07:24:22.894Z,13.20
2023-04-18T07:26:53.152Z,15.60
2023-04-18T07:29:21.900Z,14.80
2023-04-18T07:31:48.931Z,17.60
2023-04-18T07:34:16.097Z,17.75
2023-04-18T07:36:43.233Z,17.67
2023-04-18T07:39:10.224Z,17.20
2023-04-18T07:41:37.204Z,14.95
2023-04-18T07:44:05.798Z,17.42
2023-04-18T07:46:33.357Z,15.05
2023-04-18T07:49:00.419Z,16.88
2023-04-18T07:51:27.465Z,15.45
2023-04-18T07:53:54.466Z,16.17
2023-04-18T07:56:21.477Z,17.58
2023-04-18T07:58:48.507Z,14.93
2023-04-18T08:01:16.880Z,15.18
2023-04-18T08:03:44.068Z,16.27
2023-04-18T08:06:11.238Z,15.10
2023-04-18T08:08:38.304Z,17.77
2023-04-18T08:11:05.487Z,18.45
2023-04-18T08:13:32.494Z,16.27
2023-04-18T08:16:00.234Z,19.85
2023-04-18T08:18:28.718Z,17.88
2023-04-18T08:20:55.753Z,19.45
2023-04-18T08:23:22.743Z,17.55
2023-04-18T08:25:49.900Z,16.13
2023-04-18T08:28:17.163Z,16.55
2023-04-18T08:30:44.204Z,16.75
2023-04-18T08:33:11.177Z,19.98
2023-04-18T08:35:39.516Z,17.48
2023-04-18T08:38:06.528Z,19.95
2023-04-18T08:40:33.540Z,19.30
2023-04-18T08:43:02.558Z,20.23
2023-04-18T08:45:29.711Z,19.13
2023-04-18T08:47:56.982Z,20.65
2023-04-18T08:50:23.944Z,20.92
2023-04-18T08:52:54.992Z,21.13
2023-04-18T08:55:22.111Z,19.30
2023-04-18T08:57:49.097Z,20.23
2023-04-18T09:00:18.126Z,23.73
2023-04-18T09:02:45.671Z,20.02
2023-04-18T09:05:14.472Z,19.10
2023-04-18T09:07:42.051Z,23.30
2023-04-18T09:10:11.008Z,21.08
2023-04-18T09:12:43.160Z,20.02
2023-04-18T09:15:12.214Z,18.45
2023-04-18T09:17:40.752Z,18.95
2023-04-18T09:20:09.479Z,17.75
2023-04-18T09:22:46.979Z,24.17
2023-04-18T09:25:26.678Z,20.33
2023-04-18T09:27:53.904Z,20.38
2023-04-18T09:30:31.831Z,19.85
2023-04-18T09:33:00.301Z,20.02
2023-04-18T09:35:27.913Z,20.45
2023-04-18T09:37:54.891Z,19.55
2023-04-18T09:40:22.617Z,18.20
2023-04-18T09:42:51.622Z,17.20
2023-04-18T09:45:18.778Z,17.30
2023-04-18T09:47:46.106Z,17.52
2023-04-18T09:50:13.130Z,20.70
2023-04-18T09:52:41.854Z,21.40
2023-04-18T09:55:10.250Z,19.77
2023-04-18T09:57:38.343Z,18.20
2023-04-18T10:00:09.019Z,16.85
2023-04-18T10:02:45.250Z,18.08
2023-04-18T10:05:13.851Z,19.63
2023-04-18T10:07:43.889Z,19.52
2023-04-18T10:10:11.363Z,17.45
2023-04-18T10:12:39.195Z,19.08
2023-04-18T10:15:09.779Z,17.25
2023-04-18T10:17:52.559Z,20.80
2023-04-18T10:20:25.170Z,16.88
2023-04-18T10:22:54.767Z,18.00
2023-04-18T10:25:48.504Z,17.23
2023-04-18T10:28:15.517Z,18.13
2023-04-18T10:30:52.446Z,18.80
2023-04-18T10:33:31.185Z,21.95
2023-04-18T10:36:15.582Z,20.30
2023-04-18T10:38:46.842Z,19.23
2023-04-18T10:41:18.584Z,27.23
2023-04-18T10:44:10.993Z,24.40
2023-04-18T10:46:41.078Z,21.00
2023-04-18T10:49:15.265Z,19.40
2023-04-18T10:51:42.631Z,24.33
2023-04-18T10:54:11.137Z,23.55
2023-04-18T10:56:38.650Z,19.70
2023-04-18T10:59:07.789Z,19.35
2023-04-18T11:01:38.109Z,21.10
2023-04-18T11:04:14.134Z,22.58
2023-04-18T11:06:48.480Z,21.80
2023-04-18T11:09:15.827Z,20.03
2023-04-18T11:11:43.130Z,20.10
2023-04-18T11:14:10.355Z,20.60
2023-04-18T11:16:37.676Z,20.40
2023-04-18T11:19:20.141Z,21.33
2023-04-18T11:21:47.223Z,22.70
2023-04-18T11:24:24.096Z,17.13
2023-04-18T11:26:53.085Z,17.20
2023-04-18T11:29:20.257Z,20.52
2023-04-18T11:31:50.708Z,21.63
2023-04-18T11:34:19.129Z,16.98
2023-04-18T11:36:49.365Z,20.02
2023-04-18T11:39:16.387Z,24.33
2023-04-18T11:41:43.476Z,18.65
2023-04-18T11:44:10.403Z,19.73
2023-04-18T11:46:40.532Z,20.17
2023-04-18T11:49:07.563Z,18.60
2023-04-18T11:51:37.005Z,18.25
2023-04-18T11:54:04.345Z,18.40
2023-04-18T11:56:31.410Z,20.17
2023-04-18T11:58:58.432Z,18.08
2023-04-18T12:01:25.828Z,17.95
2023-04-18T12:04:03.678Z,17.98
2023-04-18T12:06:47.838Z,22.17
2023-04-18T12:09:14.979Z,15.50
2023-04-18T12:11:42.097Z,14.57
2023-04-18T12:14:19.659Z,17.10
2023-04-18T12:16:46.659Z,18.90
2023-04-18T12:19:14.674Z,15.05
2023-04-18T12:21:56.523Z,14.65
2023-04-18T12:24:25.612Z,15.07
2023-04-18T12:26:52.904Z,16.75
2023-04-18T12:29:19.896Z,16.20
2023-04-18T12:31:47.429Z,15.48
2023-04-18T12:34:14.709Z,15.80
2023-04-18T12:36:42.369Z,17.95
2023-04-18T12:39:10.836Z,15.23
2023-04-18T12:41:37.911Z,21.13
2023-04-18T12:44:05.314Z,13.30
2023-04-18T12:46:32.410Z,15.52
2023-04-18T12:49:00.229Z,13.98
2023-04-18T12:51:27.227Z,12.75
2023-04-18T12:53:54.323Z,13.55
2023-04-18T12:56:22.739Z,18.25
2023-04-18T12:58:49.744Z,12.85
2023-04-18T13:01:16.847Z,16.58
2023-04-18T13:03:45.460Z,12.68
2023-04-18T13:06:13.864Z,13.57
2023-04-18T13:08:40.810Z,12.77
2023-04-18T13:11:07.837Z,15.18
2023-04-18T13:13:36.362Z,12.23
2023-04-18T13:16:03.638Z,13.43
2023-04-18T13:18:30.663Z,11.88
2023-04-18T13:20:57.682Z,19.85
2023-04-18T13:23:25.172Z,11.75
2023-04-18T13:25:52.795Z,12.48
2023-04-18T13:28:21.240Z,13.70
2023-04-18T13:30:49.688Z,11.88
2023-04-18T13:33:17.400Z,13.77
2023-04-18T13:35:44.428Z,19.73
2023-04-18T13:38:11.399Z,11.23
2023-04-18T13:40:38.375Z,23.17
2023-04-18T13:43:05.329Z,10.93
2023-04-18T13:45:32.286Z,18.00
2023-04-18T13:48:00.688Z,12.15
2023-04-18T13:50:27.788Z,10.80
2023-04-18T13:52:54.873Z,11.55
2023-04-18T13:55:21.965Z,10.73
2023-04-18T13:57:49.080Z,13.38
2023-04-18T14:00:16.998Z,10.55
2023-04-18T14:02:44.165Z,10.65
2023-04-18T14:05:12.799Z,12.52
2023-04-18T14:07:39.766Z,13.10
2023-04-18T14:10:07.646Z,12.73
2023-04-18T14:12:34.689Z,17.35
2023-04-18T14:15:01.693Z,14.05
2023-04-18T14:17:28.864Z,15.80
2023-04-18T14:19:55.878Z,15.23
2023-04-18T14:22:24.403Z,16.83
2023-04-18T14:24:51.368Z,16.30
2023-04-18T14:27:18.408Z,17.88
2023-04-18T14:29:45.311Z,17.75
2023-04-18T14:32:13.527Z,18.92
2023-04-18T14:34:40.673Z,18.35
2023-04-18T14:37:07.635Z,20.90
2023-04-18T14:39:36.340Z,15.82
2023-04-18T14:42:03.415Z,17.05
2023-04-18T14:44:30.518Z,16.02
2023-04-18T14:46:57.531Z,18.85
2023-04-18T14:49:24.942Z,15.23
2023-04-18T14:51:51.961Z,16.42
2023-04-18T14:54:18.948Z,17.00
2023-04-18T14:56:47.434Z,16.48
2023-04-18T14:59:16.621Z,15.35
2023-04-18T15:01:44.090Z,16.45
2023-04-18T15:04:11.268Z,16.90
2023-04-18T15:06:38.438Z,17.15
2023-04-18T15:09:05.396Z,16.73
2023-04-18T15:11:32.384Z,16.13
2023-04-18T15:14:00.717Z,19.20
2023-04-18T15:16:27.745Z,17.35
2023-04-18T15:18:54.749Z,17.58
2023-04-18T15:21:21.742Z,17.77
2023-04-18T15:23:48.765Z,19.15
2023-04-18T15:26:15.799Z,18.50
2023-04-18T15:28:42.767Z,16.13
2023-04-18T15:31:11.259Z,22.60
2023-04-18T15:33:38.155Z,17.63
2023-04-18T15:36:05.716Z,15.77
2023-04-18T15:38:33.191Z,14.27
2023-04-18T15:41:00.281Z,17.23
2023-04-18T15:43:27.239Z,18.90
2023-04-18T15:45:54.314Z,15.52
2023-04-18T15:48:22.732Z,18.08
2023-04-18T15:50:50.846Z,15.50
2023-04-18T15:53:17.860Z,16.67
2023-04-18T15:55:44.827Z,17.35
2023-04-18T15:58:11.858Z,17.55
2023-04-18T16:00:39.048Z,15.82
2023-04-18T16:03:07.005Z,19.17
2023-04-18T16:05:35.580Z,16.58
2023-04-18T16:08:02.533Z,18.63
2023-04-18T16:10:29.543Z,20.20
2023-04-18T16:12:56.510Z,18.88
2023-04-18T16:15:23.486Z,17.60
2023-04-18T16:17:50.500Z,19.00
2023-04-18T16:20:17.549Z,16.70
2023-04-18T16:22:47.078Z,18.02
2023-04-18T16:25:14.163Z,19.13
2023-04-18T16:27:42.199Z,17.60
2023-04-18T16:30:09.754Z,19.92
2023-04-18T16:32:36.953Z,17.90
2023-04-18T16:35:04.311Z,18.42
2023-04-18T16:37:31.248Z,19.77
2023-04-18T16:39:59.608Z,19.75
2023-04-18T16:42:26.571Z,18.08
2023-04-18T16:44:53.533Z,17.05
2023-04-18T16:47:20.641Z,17.83
2023-04-18T16:49:47.724Z,17.83
2023-04-18T16:52:14.980Z,17.65
2023-04-18T16:54:42.006Z,21.25
2023-04-18T16:57:11.167Z,21.65
2023-04-18T16:59:38.197Z,18.27
2023-04-18T17:02:06.225Z,17.48
2023-04-18T17:04:33.275Z,17.35
2023-04-18T17:07:00.829Z,20.70
2023-04-18T17:09:27.831Z,17.73
2023-04-18T17:11:54.760Z,17.02
2023-04-18T17:14:23.042Z,20.58
2023-04-18T17:16:52.841Z,18.23
2023-04-18T17:19:20.573Z,20.13
2023-04-18T17:21:47.580Z,17.75
2023-04-18T17:24:14.547Z,19.83
2023-04-18T17:26:41.494Z,19.10
2023-04-18T17:29:08.776Z,19.27
2023-04-18T17:31:37.184Z,20.25
2023-04-18T17:34:04.241Z,19.75
2023-04-18T17:36:31.383Z,18.48
2023-04-18T17:39:00.309Z,21.33
2023-04-18T17:41:27.406Z,20.45
2023-04-18T17:43:54.439Z,19.73
2023-04-18T17:46:21.497Z,22.42
2023-04-18T17:48:49.879Z,21.75
2023-04-18T17:51:16.983Z,22.73
2023-04-18T17:53:43.898Z,25.05
2023-04-18T17:56:11.016Z,23.50
2023-04-18T17:58:37.957Z,24.98
2023-04-18T18:01:14.696Z,22.55
2023-04-18T18:03:41.856Z,24.15
2023-04-18T18:06:11.456Z,23.02
2023-04-18T18:08:38.545Z,24.40
2023-04-18T18:11:05.555Z,24.10
2023-04-18T18:13:32.725Z,22.98
2023-04-18T18:15:59.781Z,24.52
2023-04-18T18:18:26.696Z,23.55
2023-04-18T18:20:53.702Z,24.08
2023-04-18T18:23:22.044Z,25.10
2023-04-18T18:25:49.139Z,24.45
2023-04-18T18:28:16.212Z,25.88
2023-04-18T18:30:43.278Z,23.42
2023-04-18T18:33:10.265Z,26.00
2023-04-18T18:35:37.232Z,24.83
2023-04-18T18:38:04.243Z,24.58
2023-04-18T18:40:32.630Z,27.58
2023-04-18T18:42:59.601Z,26.15
2023-04-18T18:45:26.787Z,30.02
2023-04-18T18:47:53.753Z,29.25
2023-04-18T18:50:20.696Z,29.23
2023-04-18T18:52:47.722Z,29.85
2023-04-18T18:55:14.756Z,27.23
2023-04-18T18:57:43.091Z,28.58
2023-04-18T19:00:10.908Z,30.65
2023-04-18T19:02:38.619Z,28.80
2023-04-18T19:05:06.664Z,29.75
2023-04-18T19:07:33.652Z,29.15
2023-04-18T19:10:00.639Z,28.60
2023-04-18T19:12:27.689Z,27.80
2023-04-18T19:14:56.143Z,29.15
2023-04-18T19:17:23.177Z,31.10
2023-04-18T19:19:50.288Z,30.13
2023-04-18T19:22:17.337Z,32.42
2023-04-18T19:24:44.389Z,30.92
2023-04-18T19:27:11.399Z,33.53
2023-04-18T19:29:39.925Z,32.70
2023-04-18T19:32:08.399Z,32.92
2023-04-18T19:34:35.439Z,35.10
2023-04-18T19:37:02.568Z,33.60
2023-04-18T19:39:29.932Z,34.42
2023-04-18T19:41:57.311Z,34.75
2023-04-18T19:44:24.332Z,33.92
2023-04-18T19:46:51.470Z,35.13
2023-04-18T19:49:19.974Z,33.25
2023-04-18T19:51:47.038Z,37.13
2023-04-18T19:54:14.042Z,36.67
2023-04-18T19:56:41.040Z,34.75
2023-04-18T19:59:08.017Z,36.88
2023-04-18T20:01:34.993Z,33.40
2023-04-18T20:04:02.347Z,34.60
2023-04-18T20:06:31.407Z,33.75
2023-04-18T20:08:58.413Z,34.03
2023-04-18T20:11:25.509Z,33.13
2023-04-18T20:13:52.574Z,37.55
2023-04-18T20:16:19.606Z,35.10
2023-04-18T20:18:46.844Z,34.22
2023-04-18T20:21:13.774Z,38.28
2023-04-18T20:23:42.264Z,41.50
2023-04-18T20:26:09.538Z,49.30
2023-04-18T20:28:36.643Z,57.05
2023-04-18T20:31:04.093Z,67.28
2023-04-18T20:33:31.084Z,62.83
2023-04-18T20:35:58.091Z,68.05
2023-04-18T20:38:26.379Z,65.10
2023-04-18T20:40:54.753Z,63.83
2023-04-18T20:43:22.963Z,62.58
2023-04-18T20:45:50.302Z,55.85
2023-04-18T20:48:17.542Z,51.85
2023-04-18T20:50:44.549Z,46.00
2023-04-18T20:53:11.550Z,43.88
2023-04-18T20:55:39.774Z,40.95
2023-04-18T20:58:08.186Z,43.53
2023-04-18T21:00:35.141Z,42.03
2023-04-18T21:03:02.161Z,36.40
2023-04-18T21:05:29.454Z,40.58
2023-04-18T21:07:56.502Z,37.90
2023-04-18T21:10:23.531Z,36.28
2023-04-18T21:12:50.660Z,34.60
2023-04-18T21:15:18.960Z,35.90
2023-04-18T21:17:45.991Z,34.22
2023-04-18T21:20:13.134Z,37.15
2023-04-18T21:22:40.228Z,33.65
2023-04-18T21:25:08.139Z,34.60
2023-04-18T21:27:35.100Z,34.22
2023-04-18T21:30:04.085Z,35.33
2023-04-18T21:32:33.337Z,32.70
2023-04-18T21:35:00.359Z,35.78
2023-04-18T21:37:27.341Z,35.55
2023-04-18T21:39:54.343Z,35.95
2023-04-18T21:42:21.289Z,32.75
2023-04-18T21:44:48.196Z,33.95
2023-04-18T21:47:15.171Z,34.08
2023-04-18T21:49:43.534Z,35.13
2023-04-18T21:52:10.672Z,35.28
2023-04-18T21:54:37.632Z,34.60
2023-04-18T21:57:04.642Z,36.90
2023-04-18T21:59:31.561Z,34.13
2023-04-18T22:01:58.579Z,33.13
2023-04-18T22:04:26.194Z,34.65
2023-04-18T22:06:55.163Z,33.88
2023-04-18T22:09:22.511Z,34.35
2023-04-18T22:11:49.521Z,33.35
2023-04-18T22:14:16.690Z,35.50
2023-04-18T22:16:43.888Z,34.85
2023-04-18T22:19:11.331Z,33.97
2023-04-18T22:21:38.291Z,36.50
2023-04-18T22:24:08.225Z,36.15
2023-04-18T22:26:35.155Z,38.60
2023-04-18T22:29:02.227Z,35.20
2023-04-18T22:31:29.246Z,36.95
2023-04-18T22:33:56.257Z,33.47
2023-04-18T22:36:23.319Z,34.88
2023-04-18T22:38:50.212Z,34.55
2023-04-18T22:41:18.517Z,34.40
2023-04-18T22:43:45.478Z,34.35
2023-04-18T22:46:12.549Z,35.70
2023-04-18T22:48:39.540Z,35.53
2023-04-18T22:51:06.695Z,31.95
2023-04-18T22:53:33.887Z,34.17
2023-04-18T22:56:00.816Z,33.67
2023-04-18T22:58:29.227Z,35.85
2023-04-18T23:00:56.193Z,34.20
2023-04-18T23:03:23.258Z,36.63
2023-04-18T23:05:50.463Z,35.22
2023-04-18T23:08:17.416Z,33.40
2023-04-18T23:10:44.590Z,34.25
2023-04-18T23:13:11.564Z,36.25
2023-04-18T23:15:39.974Z,35.38
2023-04-18T23:18:07.081Z,35.67
2023-04-18T23:20:34.246Z,37.55
2023-04-18T23:23:01.385Z,38.15
2023-04-18T23:25:28.431Z,36.95
2023-04-18T23:27:55.576Z,35.28
2023-04-18T23:30:22.597Z,34.88
2023-04-18T23:32:50.990Z,34.00
2023-04-18T23:35:18.110Z,35.83
2023-04-18T23:37:45.168Z,34.67
2023-04-18T23:40:12.125Z,33.42
2023-04-18T23:42:39.105Z,35.08
2023-04-18T23:45:06.825Z,36.00
2023-04-18T23:47:33.875Z,37.03
2023-04-18T23:50:02.502Z,35.83
2023-04-18T23:52:29.437Z,34.35
2023-04-18T23:54:59.709Z,33.28
2023-04-18T23:57:26.834Z,38.42
2023-04-18T23:59:53.787Z,35.72
